sensor_id;sensor_type;location;lat;lon;timestamp;pressure;altitude;pressure_sealevel;temperature;humidity
70015;BME280;57358;51.094;6.760;2022-10-16T00:00:44;100631.78;;;12.36;100.00
70015;BME280;57358;51.094;6.760;2022-10-16T00:03:10;100607.94;;;12.25;100.00
70015;BME280;57358;51.094;6.760;2022-10-16T00:05:42;100626.91;;;12.30;100.00
70015;BME280;57358;51.094;6.760;2022-10-16T00:08:11;100632.38;;;12.27;100.00
70015;BME280;57358;51.094;6.760;2022-10-16T00:10:39;100586.19;;;11.93;100.00
70015;BME280;57358;51.094;6.760;2022-10-16T00:13:05;100634.31;;;12.24;100.00
70015;BME280;57358;51.094;6.760;2022-10-16T00:15:38;100630.84;;;12.23;100.00
70015;BME280;57358;51.094;6.760;2022-10-16T00:18:05;100604.22;;;11.99;100.00
70015;BME280;57358;51.094;6.760;2022-10-16T00:20:34;100591.94;;;11.84;100.00
70015;BME280;57358;51.094;6.760;2022-10-16T00:23:00;100593.53;;;11.86;100.00
70015;BME280;57358;51.094;6.760;2022-10-16T00:25:27;100651.22;;;12.20;100.00
70015;BME280;57358;51.094;6.760;2022-10-16T00:27:53;100570.91;;;11.69;100.00
70015;BME280;57358;51.094;6.760;2022-10-16T00:30:20;100577.38;;;11.78;100.00
70015;BME280;57358;51.094;6.760;2022-10-16T00:32:46;100646.34;;;12.13;100.00
70015;BME280;57358;51.094;6.760;2022-10-16T00:35:12;100559.03;;;11.62;100.00
70015;BME280;57358;51.094;6.760;2022-10-16T00:37:39;100566.66;;;11.67;100.00
70015;BME280;57358;51.094;6.760;2022-10-16T00:40:06;100590.16;;;11.84;100.00
70015;BME280;57358;51.094;6.760;2022-10-16T00:42:32;100599.84;;;11.84;100.00
70015;BME280;57358;51.094;6.760;2022-10-16T00:44:59;100631.28;;;12.01;100.00
70015;BME280;57358;51.094;6.760;2022-10-16T00:47:44;100606.31;;;11.78;100.00
70015;BME280;57358;51.094;6.760;2022-10-16T00:50:21;100565.25;;;11.61;100.00
70015;BME280;57358;51.094;6.760;2022-10-16T00:52:51;100618.50;;;11.95;100.00
70015;BME280;57358;51.094;6.760;2022-10-16T00:55:18;100616.78;;;11.94;100.00
70015;BME280;57358;51.094;6.760;2022-10-16T00:57:45;100612.38;;;11.94;100.00
70015;BME280;57358;51.094;6.760;2022-10-16T01:00:16;100577.34;;;11.64;100.00
70015;BME280;57358;51.094;6.760;2022-10-16T01:02:42;100599.38;;;11.77;100.00
70015;BME280;57358;51.094;6.760;2022-10-16T01:05:09;100548.00;;;11.41;100.00
70015;BME280;57358;51.094;6.760;2022-10-16T01:10:40;100606.31;;;11.78;100.00
70015;BME280;57358;51.094;6.760;2022-10-16T01:13:18;100621.84;;;11.83;100.00
70015;BME280;57358;51.094;6.760;2022-10-16T01:16:13;100560.88;;;11.46;100.00
70015;BME280;57358;51.094;6.760;2022-10-16T01:18:54;100552.44;;;11.41;100.00
70015;BME280;57358;51.094;6.760;2022-10-16T01:21:27;100664.34;;;11.91;100.00
70015;BME280;57358;51.094;6.760;2022-10-16T01:32:00;100570.69;;;11.72;100.00
70015;BME280;57358;51.094;6.760;2022-10-16T01:34:42;100607.41;;;12.04;100.00
70015;BME280;57358;51.094;6.760;2022-10-16T01:37:15;100571.19;;;11.79;100.00
70015;BME280;57358;51.094;6.760;2022-10-16T01:39:46;100610.81;;;12.06;100.00
70015;BME280;57358;51.094;6.760;2022-10-16T01:42:19;100534.72;;;11.58;100.00
70015;BME280;57358;51.094;6.760;2022-10-16T01:44:48;100537.94;;;11.64;100.00
70015;BME280;57358;51.094;6.760;2022-10-16T01:47:17;100602.81;;;12.08;100.00
70015;BME280;57358;51.094;6.760;2022-10-16T01:49:46;100558.22;;;11.76;100.00
70015;BME280;57358;51.094;6.760;2022-10-16T01:52:16;100601.41;;;12.02;100.00
70015;BME280;57358;51.094;6.760;2022-10-16T01:54:46;100615.97;;;12.08;100.00
70015;BME280;57358;51.094;6.760;2022-10-16T01:57:14;100622.75;;;12.12;100.00
70015;BME280;57358;51.094;6.760;2022-10-16T01:59:45;100611.56;;;12.08;100.00
70015;BME280;57358;51.094;6.760;2022-10-16T02:02:14;100616.66;;;12.11;100.00
70015;BME280;57358;51.094;6.760;2022-10-16T02:04:49;100616.28;;;12.17;100.00
70015;BME280;57358;51.094;6.760;2022-10-16T02:07:19;100591.09;;;11.99;100.00
70015;BME280;57358;51.094;6.760;2022-10-16T02:09:45;100606.97;;;12.12;100.00
70015;BME280;57358;51.094;6.760;2022-10-16T02:12:21;100614.31;;;12.21;100.00
70015;BME280;57358;51.094;6.760;2022-10-16T02:14:50;100637.88;;;12.23;100.00
70015;BME280;57358;51.094;6.760;2022-10-16T02:17:18;100596.97;;;12.03;100.00
70015;BME280;57358;51.094;6.760;2022-10-16T02:19:46;100619.19;;;12.13;100.00
70015;BME280;57358;51.094;6.760;2022-10-16T02:22:34;100630.66;;;12.26;100.00
70015;BME280;57358;51.094;6.760;2022-10-16T02:27:35;100470.00;;;11.27;100.00
70015;BME280;57358;51.094;6.760;2022-10-16T02:30:14;100594.56;;;12.00;100.00
70015;BME280;57358;51.094;6.760;2022-10-16T02:32:46;100638.47;;;12.28;100.00
70015;BME280;57358;51.094;6.760;2022-10-16T02:35:18;100583.06;;;12.01;100.00
70015;BME280;57358;51.094;6.760;2022-10-16T02:37:47;100562.88;;;11.87;100.00
70015;BME280;57358;51.094;6.760;2022-10-16T02:40:15;100640.06;;;12.30;100.00
70015;BME280;57358;51.094;6.760;2022-10-16T02:42:51;100642.69;;;12.30;100.00
70015;BME280;57358;51.094;6.760;2022-10-16T02:45:18;100562.59;;;11.91;100.00
70015;BME280;57358;51.094;6.760;2022-10-16T02:47:45;100629.72;;;12.27;100.00
70015;BME280;57358;51.094;6.760;2022-10-16T02:50:11;100639.31;;;12.28;100.00
70015;BME280;57358;51.094;6.760;2022-10-16T02:52:38;100565.56;;;11.85;100.00
70015;BME280;57358;51.094;6.760;2022-10-16T02:55:05;100636.66;;;12.28;100.00
70015;BME280;57358;51.094;6.760;2022-10-16T02:57:31;100613.81;;;12.14;100.00
70015;BME280;57358;51.094;6.760;2022-10-16T03:00:00;100634.41;;;12.22;100.00
70015;BME280;57358;51.094;6.760;2022-10-16T03:02:27;100604.31;;;11.97;100.00
70015;BME280;57358;51.094;6.760;2022-10-16T03:04:53;100612.28;;;11.96;100.00
70015;BME280;57358;51.094;6.760;2022-10-16T03:07:19;100626.41;;;11.95;100.00
70015;BME280;57358;51.094;6.760;2022-10-16T03:09:46;100633.81;;;12.03;100.00
70015;BME280;57358;51.094;6.760;2022-10-16T03:12:12;100594.66;;;11.82;100.00
70015;BME280;57358;51.094;6.760;2022-10-16T03:14:38;100634.00;;;12.00;100.00
70015;BME280;57358;51.094;6.760;2022-10-16T03:17:06;100555.53;;;11.47;100.00
70015;BME280;57358;51.094;6.760;2022-10-16T03:19:32;100630.97;;;11.91;100.00
70015;BME280;57358;51.094;6.760;2022-10-16T03:21:58;100638.69;;;11.94;100.00
70015;BME280;57358;51.094;6.760;2022-10-16T03:24:25;100635.28;;;11.92;100.00
70015;BME280;57358;51.094;6.760;2022-10-16T03:26:51;100646.75;;;11.91;100.00
70015;BME280;57358;51.094;6.760;2022-10-16T03:29:18;100639.44;;;11.81;100.00
70015;BME280;57358;51.094;6.760;2022-10-16T03:31:44;100657.38;;;11.90;100.00
70015;BME280;57358;51.094;6.760;2022-10-16T03:34:10;100653.06;;;11.89;100.00
70015;BME280;57358;51.094;6.760;2022-10-16T03:36:37;100641.75;;;11.87;100.00
70015;BME280;57358;51.094;6.760;2022-10-16T03:39:03;100629.22;;;11.76;100.00
70015;BME280;57358;51.094;6.760;2022-10-16T03:41:29;100641.84;;;11.85;100.00
70015;BME280;57358;51.094;6.760;2022-10-16T03:43:56;100639.28;;;11.84;100.00
70015;BME280;57358;51.094;6.760;2022-10-16T03:46:22;100650.44;;;11.73;100.00
70015;BME280;57358;51.094;6.760;2022-10-16T03:48:48;100581.56;;;11.36;100.00
70015;BME280;57358;51.094;6.760;2022-10-16T03:51:15;100607.50;;;11.42;100.00
70015;BME280;57358;51.094;6.760;2022-10-16T03:53:41;100607.34;;;11.45;100.00
70015;BME280;57358;51.094;6.760;2022-10-16T03:56:08;100648.84;;;11.54;100.00
70015;BME280;57358;51.094;6.760;2022-10-16T03:58:34;100669.44;;;11.62;100.00
70015;BME280;57358;51.094;6.760;2022-10-16T04:01:00;100602.72;;;11.18;100.00
70015;BME280;57358;51.094;6.760;2022-10-16T04:03:27;100654.63;;;11.45;100.00
70015;BME280;57358;51.094;6.760;2022-10-16T04:05:53;100654.97;;;11.55;100.00
70015;BME280;57358;51.094;6.760;2022-10-16T04:08:20;100649.78;;;11.53;100.00
70015;BME280;57358;51.094;6.760;2022-10-16T04:10:46;100658.59;;;11.52;100.00
70015;BME280;57358;51.094;6.760;2022-10-16T04:13:12;100693.09;;;11.46;100.00
70015;BME280;57358;51.094;6.760;2022-10-16T04:15:39;100665.72;;;11.50;100.00
70015;BME280;57358;51.094;6.760;2022-10-16T04:18:06;100669.28;;;11.49;100.00
70015;BME280;57358;51.094;6.760;2022-10-16T04:20:33;100684.13;;;11.50;100.00
70015;BME280;57358;51.094;6.760;2022-10-16T04:22:59;100663.63;;;11.41;100.00
70015;BME280;57358;51.094;6.760;2022-10-16T04:25:26;100690.25;;;11.51;100.00
70015;BME280;57358;51.094;6.760;2022-10-16T04:27:53;100689.38;;;11.50;100.00
70015;BME280;57358;51.094;6.760;2022-10-16T04:30:20;100669.03;;;11.38;100.00
70015;BME280;57358;51.094;6.760;2022-10-16T04:32:48;100598.91;;;10.92;100.00
70015;BME280;57358;51.094;6.760;2022-10-16T04:35:20;100633.56;;;11.15;100.00
70015;BME280;57358;51.094;6.760;2022-10-16T04:37:47;100615.53;;;10.93;100.00
70015;BME280;57358;51.094;6.760;2022-10-16T04:40:14;100612.13;;;10.91;100.00
70015;BME280;57358;51.094;6.760;2022-10-16T04:42:40;100681.50;;;11.34;100.00
70015;BME280;57358;51.094;6.760;2022-10-16T04:45:07;100684.03;;;11.36;100.00
70015;BME280;57358;51.094;6.760;2022-10-16T04:47:40;100685.00;;;11.35;100.00
70015;BME280;57358;51.094;6.760;2022-10-16T04:50:06;100699.88;;;11.34;100.00
70015;BME280;57358;51.094;6.760;2022-10-16T04:52:33;100664.72;;;11.05;100.00
70015;BME280;57358;51.094;6.760;2022-10-16T04:55:00;100714.81;;;11.34;100.00
70015;BME280;57358;51.094;6.760;2022-10-16T04:57:28;100706.50;;;11.26;100.00
70015;BME280;57358;51.094;6.760;2022-10-16T04:59:55;100712.19;;;11.34;100.00
70015;BME280;57358;51.094;6.760;2022-10-16T05:02:21;100681.41;;;11.04;100.00
70015;BME280;57358;51.094;6.760;2022-10-16T05:04:48;100629.75;;;10.89;100.00
70015;BME280;57358;51.094;6.760;2022-10-16T05:07:14;100692.25;;;11.14;100.00
70015;BME280;57358;51.094;6.760;2022-10-16T05:09:40;100707.53;;;11.23;100.00
70015;BME280;57358;51.094;6.760;2022-10-16T05:12:07;100671.25;;;10.98;100.00
70015;BME280;57358;51.094;6.760;2022-10-16T05:14:33;100641.56;;;10.80;100.00
70015;BME280;57358;51.094;6.760;2022-10-16T05:17:00;100704.16;;;11.21;100.00
70015;BME280;57358;51.094;6.760;2022-10-16T05:19:26;100716.09;;;11.27;100.00
70015;BME280;57358;51.094;6.760;2022-10-16T05:21:54;100721.34;;;11.27;100.00
70015;BME280;57358;51.094;6.760;2022-10-16T05:24:21;100731.53;;;11.33;100.00
70015;BME280;57358;51.094;6.760;2022-10-16T05:26:47;100668.78;;;10.95;100.00
70015;BME280;57358;51.094;6.760;2022-10-16T05:29:14;100716.69;;;11.32;100.00
70015;BME280;57358;51.094;6.760;2022-10-16T05:31:40;100691.75;;;11.07;100.00
70015;BME280;57358;51.094;6.760;2022-10-16T05:34:07;100627.88;;;10.75;100.00
70015;BME280;57358;51.094;6.760;2022-10-16T05:36:33;100720.25;;;11.31;100.00
70015;BME280;57358;51.094;6.760;2022-10-16T05:38:59;100652.94;;;10.81;100.00
70015;BME280;57358;51.094;6.760;2022-10-16T05:41:26;100732.63;;;11.29;100.00
70015;BME280;57358;51.094;6.760;2022-10-16T05:43:53;100728.38;;;11.26;100.00
70015;BME280;57358;51.094;6.760;2022-10-16T05:46:19;100741.28;;;11.31;100.00
70015;BME280;57358;51.094;6.760;2022-10-16T05:48:46;100729.38;;;11.24;100.00
70015;BME280;57358;51.094;6.760;2022-10-16T05:51:14;100719.28;;;11.16;100.00
70015;BME280;57358;51.094;6.760;2022-10-16T05:53:41;100743.56;;;11.37;100.00
70015;BME280;57358;51.094;6.760;2022-10-16T05:56:13;100755.94;;;11.35;100.00
70015;BME280;57358;51.094;6.760;2022-10-16T05:58:41;100748.63;;;11.40;100.00
70015;BME280;57358;51.094;6.760;2022-10-16T06:01:13;100704.72;;;11.10;100.00
70015;BME280;57358;51.094;6.760;2022-10-16T06:03:41;100746.88;;;11.41;100.00
70015;BME280;57358;51.094;6.760;2022-10-16T06:06:12;100764.66;;;11.51;100.00
70015;BME280;57358;51.094;6.760;2022-10-16T06:08:41;100764.34;;;11.57;100.00
70015;BME280;57358;51.094;6.760;2022-10-16T06:11:11;100764.00;;;11.64;100.00
70015;BME280;57358;51.094;6.760;2022-10-16T06:13:37;100756.09;;;11.64;100.00
70015;BME280;57358;51.094;6.760;2022-10-16T06:16:05;100668.41;;;11.18;100.00
70015;BME280;57358;51.094;6.760;2022-10-16T06:18:34;100756.28;;;11.61;100.00
70015;BME280;57358;51.094;6.760;2022-10-16T06:21:07;100768.56;;;11.76;100.00
70015;BME280;57358;51.094;6.760;2022-10-16T06:23:34;100759.41;;;11.67;100.00
70015;BME280;57358;51.094;6.760;2022-10-16T06:26:07;100758.56;;;11.67;100.00
70015;BME280;57358;51.094;6.760;2022-10-16T06:28:34;100775.19;;;11.83;100.00
70015;BME280;57358;51.094;6.760;2022-10-16T06:31:03;100782.81;;;11.88;100.00
70015;BME280;57358;51.094;6.760;2022-10-16T06:33:34;100768.81;;;11.87;100.00
70015;BME280;57358;51.094;6.760;2022-10-16T06:36:13;100779.19;;;11.90;100.00
70015;BME280;57358;51.094;6.760;2022-10-16T06:38:41;100791.22;;;11.94;100.00
70015;BME280;57358;51.094;6.760;2022-10-16T06:41:11;100797.06;;;12.00;100.00
70015;BME280;57358;51.094;6.760;2022-10-16T06:43:38;100802.00;;;12.06;100.00
70015;BME280;57358;51.094;6.760;2022-10-16T06:46:06;100771.72;;;11.83;100.00
70015;BME280;57358;51.094;6.760;2022-10-16T06:48:34;100809.97;;;12.04;100.00
70015;BME280;57358;51.094;6.760;2022-10-16T06:51:16;100819.09;;;12.29;100.00
70015;BME280;57358;51.094;6.760;2022-10-16T06:53:45;100822.91;;;12.39;100.00
70015;BME280;57358;51.094;6.760;2022-10-16T06:56:31;100802.09;;;12.34;100.00
70015;BME280;57358;51.094;6.760;2022-10-16T06:58:58;100774.63;;;12.24;100.00
70015;BME280;57358;51.094;6.760;2022-10-16T07:01:25;100846.31;;;12.74;100.00
70015;BME280;57358;51.094;6.760;2022-10-16T07:03:52;100856.84;;;12.74;100.00
70015;BME280;57358;51.094;6.760;2022-10-16T07:06:20;100859.75;;;12.69;100.00
70015;BME280;57358;51.094;6.760;2022-10-16T07:08:47;100806.50;;;12.34;100.00
70015;BME280;57358;51.094;6.760;2022-10-16T07:11:16;100832.75;;;12.35;100.00
70015;BME280;57358;51.094;6.760;2022-10-16T07:13:45;100860.31;;;12.44;100.00
70015;BME280;57358;51.094;6.760;2022-10-16T07:16:23;100888.75;;;12.53;100.00
70015;BME280;57358;51.094;6.760;2022-10-16T07:18:54;100889.09;;;12.47;100.00
70015;BME280;57358;51.094;6.760;2022-10-16T07:21:33;100774.84;;;11.73;100.00
70015;BME280;57358;51.094;6.760;2022-10-16T07:24:12;100894.03;;;12.37;100.00
70015;BME280;57358;51.094;6.760;2022-10-16T07:26:39;100898.19;;;12.42;100.00
70015;BME280;57358;51.094;6.760;2022-10-16T07:29:11;100889.19;;;12.46;100.00
70015;BME280;57358;51.094;6.760;2022-10-16T07:31:39;100904.56;;;12.53;100.00
70015;BME280;57358;51.094;6.760;2022-10-16T07:34:06;100900.97;;;12.54;100.00
70015;BME280;57358;51.094;6.760;2022-10-16T07:36:32;100831.41;;;12.12;100.00
70015;BME280;57358;51.094;6.760;2022-10-16T07:38:59;100898.44;;;12.53;100.00
70015;BME280;57358;51.094;6.760;2022-10-16T07:41:26;100828.63;;;12.00;100.00
70015;BME280;57358;51.094;6.760;2022-10-16T07:43:53;100904.16;;;12.45;100.00
70015;BME280;57358;51.094;6.760;2022-10-16T07:46:22;100915.50;;;12.46;100.00
70015;BME280;57358;51.094;6.760;2022-10-16T07:48:48;100866.31;;;12.16;100.00
70015;BME280;57358;51.094;6.760;2022-10-16T07:51:20;100903.09;;;12.64;100.00
70015;BME280;57358;51.094;6.760;2022-10-16T07:53:50;100919.25;;;12.88;100.00
70015;BME280;57358;51.094;6.760;2022-10-16T07:56:18;100919.28;;;13.02;100.00
70015;BME280;57358;51.094;6.760;2022-10-16T07:58:45;100910.34;;;13.05;100.00
70015;BME280;57358;51.094;6.760;2022-10-16T08:01:14;100943.50;;;13.39;100.00
70015;BME280;57358;51.094;6.760;2022-10-16T08:03:46;100950.56;;;13.53;100.00
70015;BME280;57358;51.094;6.760;2022-10-16T08:06:12;100879.63;;;13.20;100.00
70015;BME280;57358;51.094;6.760;2022-10-16T08:08:39;100938.53;;;13.63;100.00
70015;BME280;57358;51.094;6.760;2022-10-16T08:11:06;100960.09;;;13.84;100.00
70015;BME280;57358;51.094;6.760;2022-10-16T08:13:33;100972.44;;;13.98;100.00
70015;BME280;57358;51.094;6.760;2022-10-16T08:16:00;100873.53;;;13.48;100.00
70015;BME280;57358;51.094;6.760;2022-10-16T08:18:26;100966.84;;;14.17;100.00
70015;BME280;57358;51.094;6.760;2022-10-16T08:20:57;100960.97;;;14.26;100.00
70015;BME280;57358;51.094;6.760;2022-10-16T08:23:25;100843.03;;;13.58;100.00
70015;BME280;57358;51.094;6.760;2022-10-16T08:25:55;100933.00;;;14.24;100.00
70015;BME280;57358;51.094;6.760;2022-10-16T08:28:22;100936.84;;;14.32;100.00
70015;BME280;57358;51.094;6.760;2022-10-16T08:30:49;100980.72;;;14.62;100.00
70015;BME280;57358;51.094;6.760;2022-10-16T08:33:15;101004.72;;;14.86;100.00
70015;BME280;57358;51.094;6.760;2022-10-16T08:35:41;100938.00;;;14.55;100.00
70015;BME280;57358;51.094;6.760;2022-10-16T08:38:08;101016.63;;;15.06;100.00
70015;BME280;57358;51.094;6.760;2022-10-16T08:40:36;101015.47;;;15.10;100.00
70015;BME280;57358;51.094;6.760;2022-10-16T08:43:19;100983.25;;;14.91;100.00
70015;BME280;57358;51.094;6.760;2022-10-16T08:46:15;101036.69;;;15.36;100.00
70015;BME280;57358;51.094;6.760;2022-10-16T08:48:53;101034.56;;;15.41;100.00
70015;BME280;57358;51.094;6.760;2022-10-16T08:51:24;101035.75;;;15.50;100.00
70015;BME280;57358;51.094;6.760;2022-10-16T08:53:54;101028.25;;;15.56;100.00
70015;BME280;57358;51.094;6.760;2022-10-16T08:56:22;101038.31;;;15.64;100.00
70015;BME280;57358;51.094;6.760;2022-10-16T08:58:49;101032.19;;;15.64;100.00
70015;BME280;57358;51.094;6.760;2022-10-16T09:01:22;101024.75;;;15.69;100.00
70015;BME280;57358;51.094;6.760;2022-10-16T09:14:38;101044.25;;;16.32;100.00
70015;BME280;57358;51.094;6.760;2022-10-16T09:20:18;101046.03;;;16.44;100.00
70015;BME280;57358;51.094;6.760;2022-10-16T09:22:46;101047.91;;;16.55;100.00
70015;BME280;57358;51.094;6.760;2022-10-16T09:25:15;101055.84;;;16.68;100.00
70015;BME280;57358;51.094;6.760;2022-10-16T09:27:44;101056.34;;;16.86;100.00
70015;BME280;57358;51.094;6.760;2022-10-16T09:30:13;101052.72;;;16.87;100.00
70015;BME280;57358;51.094;6.760;2022-10-16T09:32:42;101062.66;;;16.96;100.00
70015;BME280;57358;51.094;6.760;2022-10-16T09:35:20;101014.91;;;16.72;100.00
70015;BME280;57358;51.094;6.760;2022-10-16T09:37:49;101026.81;;;16.90;100.00
70015;BME280;57358;51.094;6.760;2022-10-16T09:40:28;101050.44;;;17.18;100.00
70015;BME280;57358;51.094;6.760;2022-10-16T09:46:19;101067.88;;;17.33;100.00
70015;BME280;57358;51.094;6.760;2022-10-16T09:48:49;101027.91;;;17.23;100.00
70015;BME280;57358;51.094;6.760;2022-10-16T09:51:23;101056.13;;;17.48;100.00
70015;BME280;57358;51.094;6.760;2022-10-16T09:54:13;101039.97;;;17.63;100.00
70015;BME280;57358;51.094;6.760;2022-10-16T09:56:39;101064.22;;;18.05;100.00
70015;BME280;57358;51.094;6.760;2022-10-16T09:59:20;100997.25;;;17.66;98.04
70015;BME280;57358;51.094;6.760;2022-10-16T10:01:52;101032.06;;;17.74;94.63
70015;BME280;57358;51.094;6.760;2022-10-16T10:04:20;101068.44;;;17.96;94.19
70015;BME280;57358;51.094;6.760;2022-10-16T10:09:26;101016.78;;;18.00;95.04
70015;BME280;57358;51.094;6.760;2022-10-16T10:11:57;101076.66;;;18.49;93.42
70015;BME280;57358;51.094;6.760;2022-10-16T10:14:27;101046.94;;;18.22;91.67
70015;BME280;57358;51.094;6.760;2022-10-16T10:17:17;101063.97;;;18.53;91.95
70015;BME280;57358;51.094;6.760;2022-10-16T10:19:58;101074.09;;;18.48;89.23
70015;BME280;57358;51.094;6.760;2022-10-16T10:22:32;101058.50;;;18.66;90.40
70015;BME280;57358;51.094;6.760;2022-10-16T10:35:48;100989.06;;;17.58;93.18
70015;BME280;57358;51.094;6.760;2022-10-16T10:41:21;101076.53;;;18.51;93.23
70015;BME280;57358;51.094;6.760;2022-10-16T10:44:16;101089.56;;;18.77;93.22
70015;BME280;57358;51.094;6.760;2022-10-16T10:46:57;101090.88;;;18.71;90.71
70015;BME280;57358;51.094;6.760;2022-10-16T11:00:50;101090.44;;;18.54;89.93
70015;BME280;57358;51.094;6.760;2022-10-16T11:06:05;101090.88;;;18.60;91.66
70015;BME280;57358;51.094;6.760;2022-10-16T11:08:49;101043.69;;;18.41;91.28
70015;BME280;57358;51.094;6.760;2022-10-16T11:11:34;101099.72;;;18.60;89.63
70015;BME280;57358;51.094;6.760;2022-10-16T11:14:14;101106.97;;;18.36;91.82
70015;BME280;57358;51.094;6.760;2022-10-16T11:16:52;101094.03;;;18.20;90.75
70015;BME280;57358;51.094;6.760;2022-10-16T11:19:51;101115.41;;;18.74;91.85
70015;BME280;57358;51.094;6.760;2022-10-16T11:22:34;101109.69;;;19.02;89.35
70015;BME280;57358;51.094;6.760;2022-10-16T11:25:16;101103.22;;;19.27;88.32
70015;BME280;57358;51.094;6.760;2022-10-16T11:27:56;101077.25;;;19.19;88.03
70015;BME280;57358;51.094;6.760;2022-10-16T11:30:29;101111.38;;;19.79;86.32
70015;BME280;57358;51.094;6.760;2022-10-16T11:36:03;101033.91;;;19.28;79.65
70015;BME280;57358;51.094;6.760;2022-10-16T11:39:01;101062.97;;;19.73;81.13
70015;BME280;57358;51.094;6.760;2022-10-16T11:41:59;101116.50;;;19.91;80.95
70015;BME280;57358;51.094;6.760;2022-10-16T11:50:43;101119.63;;;19.97;80.14
70015;BME280;57358;51.094;6.760;2022-10-16T11:53:27;101073.09;;;19.80;79.70
70015;BME280;57358;51.094;6.760;2022-10-16T11:55:57;101084.41;;;19.93;79.47
70015;BME280;57358;51.094;6.760;2022-10-16T11:58:28;101127.06;;;20.24;79.47
70015;BME280;57358;51.094;6.760;2022-10-16T12:06:48;101114.22;;;19.87;76.17
70015;BME280;57358;51.094;6.760;2022-10-16T12:09:23;101096.13;;;19.81;79.27
70015;BME280;57358;51.094;6.760;2022-10-16T12:11:51;101094.81;;;19.64;79.35
70015;BME280;57358;51.094;6.760;2022-10-16T12:14:21;101148.66;;;20.00;78.97
70015;BME280;57358;51.094;6.760;2022-10-16T12:17:03;101098.69;;;19.92;78.38
70015;BME280;57358;51.094;6.760;2022-10-16T12:19:32;101093.94;;;19.96;79.43
70015;BME280;57358;51.094;6.760;2022-10-16T12:22:01;101093.63;;;19.89;77.81
70015;BME280;57358;51.094;6.760;2022-10-16T12:24:39;101128.84;;;19.92;80.20
70015;BME280;57358;51.094;6.760;2022-10-16T12:29:57;101134.47;;;20.20;78.82
70015;BME280;57358;51.094;6.760;2022-10-16T12:32:28;101121.06;;;20.31;76.94
70015;BME280;57358;51.094;6.760;2022-10-16T12:35:25;101107.66;;;20.52;76.43
70015;BME280;57358;51.094;6.760;2022-10-16T12:37:53;101076.13;;;20.58;75.04
70015;BME280;57358;51.094;6.760;2022-10-16T12:40:30;101118.69;;;21.09;74.66
70015;BME280;57358;51.094;6.760;2022-10-16T12:42:58;101072.44;;;21.19;74.29
70015;BME280;57358;51.094;6.760;2022-10-16T12:45:29;101112.91;;;21.14;70.47
70015;BME280;57358;51.094;6.760;2022-10-16T12:47:58;101084.66;;;20.92;72.59
70015;BME280;57358;51.094;6.760;2022-10-16T12:50:43;101128.88;;;20.95;73.78
70015;BME280;57358;51.094;6.760;2022-10-16T12:53:21;101077.56;;;20.62;74.61
70015;BME280;57358;51.094;6.760;2022-10-16T12:56:16;101106.84;;;20.83;75.41
70015;BME280;57358;51.094;6.760;2022-10-16T13:01:31;101122.91;;;21.41;75.20
70015;BME280;57358;51.094;6.760;2022-10-16T13:04:27;101077.97;;;21.56;74.03
70015;BME280;57358;51.094;6.760;2022-10-16T13:07:25;101123.84;;;21.99;69.80
70015;BME280;57358;51.094;6.760;2022-10-16T13:10:06;101061.22;;;21.54;70.04
70015;BME280;57358;51.094;6.760;2022-10-16T13:13:09;101115.34;;;22.23;70.52
70015;BME280;57358;51.094;6.760;2022-10-16T13:21:56;101117.13;;;21.95;67.79
70015;BME280;57358;51.094;6.760;2022-10-16T13:24:46;101122.63;;;21.93;68.90
70015;BME280;57358;51.094;6.760;2022-10-16T13:30:00;101124.75;;;21.89;65.26
70015;BME280;57358;51.094;6.760;2022-10-16T13:32:27;101123.47;;;21.94;66.55
70015;BME280;57358;51.094;6.760;2022-10-16T13:34:54;101132.19;;;21.96;66.30
70015;BME280;57358;51.094;6.760;2022-10-16T13:37:24;101111.06;;;21.15;64.47
70015;BME280;57358;51.094;6.760;2022-10-16T13:40:04;101141.88;;;21.38;66.47
70015;BME280;57358;51.094;6.760;2022-10-16T13:42:38;101114.59;;;21.35;66.63
70015;BME280;57358;51.094;6.760;2022-10-16T13:45:05;101109.88;;;21.48;66.87
70015;BME280;57358;51.094;6.760;2022-10-16T13:47:31;101084.81;;;21.20;66.05
70015;BME280;57358;51.094;6.760;2022-10-16T13:50:01;101120.91;;;21.14;68.73
70015;BME280;57358;51.094;6.760;2022-10-16T13:52:28;101134.41;;;21.03;69.58
70015;BME280;57358;51.094;6.760;2022-10-16T13:54:55;101149.41;;;20.94;70.02
70015;BME280;57358;51.094;6.760;2022-10-16T13:57:27;101145.78;;;20.64;70.18
70015;BME280;57358;51.094;6.760;2022-10-16T13:59:54;101160.94;;;20.33;72.40
70015;BME280;57358;51.094;6.760;2022-10-16T14:04:48;100999.69;;;19.03;72.74
70015;BME280;57358;51.094;6.760;2022-10-16T14:07:22;101106.31;;;19.64;75.00
70015;BME280;57358;51.094;6.760;2022-10-16T14:09:51;101145.31;;;19.86;76.32
70015;BME280;57358;51.094;6.760;2022-10-16T14:12:19;101142.22;;;19.81;76.46
70015;BME280;57358;51.094;6.760;2022-10-16T14:14:52;101106.91;;;19.68;77.39
70015;BME280;57358;51.094;6.760;2022-10-16T14:17:22;101158.97;;;20.14;77.14
70015;BME280;57358;51.094;6.760;2022-10-16T14:19:53;101158.13;;;20.13;76.00
70015;BME280;57358;51.094;6.760;2022-10-16T14:22:36;101154.81;;;20.21;76.80
70015;BME280;57358;51.094;6.760;2022-10-16T14:27:45;101148.56;;;20.32;76.53
70015;BME280;57358;51.094;6.760;2022-10-16T14:30:17;101120.34;;;19.99;74.65
70015;BME280;57358;51.094;6.760;2022-10-16T14:32:59;101148.47;;;19.91;78.26
70015;BME280;57358;51.094;6.760;2022-10-16T14:35:36;101148.28;;;19.83;79.13
70015;BME280;57358;51.094;6.760;2022-10-16T14:38:05;101137.28;;;19.77;80.47